sensor_id;sensor_type;location;lat;lon;timestamp;P1;durP1;ratioP1;P2;durP2;ratioP2
68744;SDS011;66104;45.456;11.064;2023-02-28T00:00:48;7.10;;;4.40;;
68744;SDS011;66104;45.456;11.064;2023-02-28T00:03:26;6.70;;;4.50;;
68744;SDS011;66104;45.456;11.064;2023-02-28T00:06:08;6.00;;;3.90;;
68744;SDS011;66104;45.456;11.064;2023-02-28T00:08:47;5.70;;;3.60;;
68744;SDS011;66104;45.456;11.064;2023-02-28T00:11:25;5.60;;;3.60;;
68744;SDS011;66104;45.456;11.064;2023-02-28T00:14:03;6.00;;;4.30;;
68744;SDS011;66104;45.456;11.064;2023-02-28T00:16:40;5.40;;;3.70;;
68744;SDS011;66104;45.456;11.064;2023-02-28T00:19:17;5.10;;;3.70;;
68744;SDS011;66104;45.456;11.064;2023-02-28T00:21:53;6.30;;;4.00;;
68744;SDS011;66104;45.456;11.064;2023-02-28T00:24:30;5.70;;;3.40;;
68744;SDS011;66104;45.456;11.064;2023-02-28T00:27:07;5.30;;;3.10;;
68744;SDS011;66104;45.456;11.064;2023-02-28T00:29:44;7.40;;;5.30;;
68744;SDS011;66104;45.456;11.064;2023-02-28T00:32:22;6.80;;;4.10;;
68744;SDS011;66104;45.456;11.064;2023-02-28T00:34:59;7.10;;;4.30;;
68744;SDS011;66104;45.456;11.064;2023-02-28T00:37:36;6.10;;;4.00;;
68744;SDS011;66104;45.456;11.064;2023-02-28T00:40:15;6.20;;;4.20;;
68744;SDS011;66104;45.456;11.064;2023-02-28T00:42:52;8.10;;;4.90;;
68744;SDS011;66104;45.456;11.064;2023-02-28T00:45:29;6.50;;;4.30;;
68744;SDS011;66104;45.456;11.064;2023-02-28T00:48:06;7.60;;;4.90;;
68744;SDS011;66104;45.456;11.064;2023-02-28T00:50:42;6.90;;;4.40;;
68744;SDS011;66104;45.456;11.064;2023-02-28T00:53:21;5.50;;;3.60;;
68744;SDS011;66104;45.456;11.064;2023-02-28T00:56:00;6.80;;;4.00;;
68744;SDS011;66104;45.456;11.064;2023-02-28T00:58:36;7.80;;;5.00;;
68744;SDS011;66104;45.456;11.064;2023-02-28T01:01:13;6.60;;;4.10;;
68744;SDS011;66104;45.456;11.064;2023-02-28T01:03:49;6.60;;;4.10;;
68744;SDS011;66104;45.456;11.064;2023-02-28T01:06:26;8.00;;;5.00;;
68744;SDS011;66104;45.456;11.064;2023-02-28T01:09:04;9.80;;;5.00;;
68744;SDS011;66104;45.456;11.064;2023-02-28T01:11:40;7.70;;;4.60;;
68744;SDS011;66104;45.456;11.064;2023-02-28T01:14:17;7.80;;;5.00;;
68744;SDS011;66104;45.456;11.064;2023-02-28T01:16:55;6.40;;;3.90;;
68744;SDS011;66104;45.456;11.064;2023-02-28T01:19:31;6.50;;;4.30;;
68744;SDS011;66104;45.456;11.064;2023-02-28T01:22:07;7.30;;;4.10;;
68744;SDS011;66104;45.456;11.064;2023-02-28T01:24:45;7.90;;;4.00;;
68744;SDS011;66104;45.456;11.064;2023-02-28T01:27:22;6.40;;;3.90;;
68744;SDS011;66104;45.456;11.064;2023-02-28T01:29:59;5.60;;;4.20;;
68744;SDS011;66104;45.456;11.064;2023-02-28T01:32:35;6.10;;;4.70;;
68744;SDS011;66104;45.456;11.064;2023-02-28T01:35:12;6.50;;;4.50;;
68744;SDS011;66104;45.456;11.064;2023-02-28T01:37:49;11.50;;;4.70;;
68744;SDS011;66104;45.456;11.064;2023-02-28T01:40:29;5.70;;;3.80;;
68744;SDS011;66104;45.456;11.064;2023-02-28T01:43:07;7.70;;;4.40;;
68744;SDS011;66104;45.456;11.064;2023-02-28T01:45:59;5.90;;;4.20;;
68744;SDS011;66104;45.456;11.064;2023-02-28T01:48:38;5.90;;;4.50;;
68744;SDS011;66104;45.456;11.064;2023-02-28T01:51:21;6.60;;;3.50;;
68744;SDS011;66104;45.456;11.064;2023-02-28T01:54:01;6.70;;;4.50;;
68744;SDS011;66104;45.456;11.064;2023-02-28T01:56:47;5.60;;;3.70;;
68744;SDS011;66104;45.456;11.064;2023-02-28T01:59:29;6.60;;;4.20;;
68744;SDS011;66104;45.456;11.064;2023-02-28T02:02:09;8.80;;;5.20;;
68744;SDS011;66104;45.456;11.064;2023-02-28T02:04:50;5.10;;;3.70;;
68744;SDS011;66104;45.456;11.064;2023-02-28T02:07:32;5.60;;;3.90;;
68744;SDS011;66104;45.456;11.064;2023-02-28T02:10:14;6.00;;;4.80;;
68744;SDS011;66104;45.456;11.064;2023-02-28T02:16:10;7.70;;;3.90;;
68744;SDS011;66104;45.456;11.064;2023-02-28T02:19:00;5.70;;;3.70;;
68744;SDS011;66104;45.456;11.064;2023-02-28T02:22:10;7.20;;;4.40;;
68744;SDS011;66104;45.456;11.064;2023-02-28T02:25:10;5.20;;;3.90;;
68744;SDS011;66104;45.456;11.064;2023-02-28T02:31:51;8.70;;;4.30;;
68744;SDS011;66104;45.456;11.064;2023-02-28T02:34:57;6.10;;;4.20;;
68744;SDS011;66104;45.456;11.064;2023-02-28T02:37:46;5.70;;;4.10;;
68744;SDS011;66104;45.456;11.064;2023-02-28T02:40:30;6.00;;;3.60;;
68744;SDS011;66104;45.456;11.064;2023-02-28T02:43:17;5.70;;;4.10;;
68744;SDS011;66104;45.456;11.064;2023-02-28T02:46:04;6.20;;;3.90;;
68744;SDS011;66104;45.456;11.064;2023-02-28T02:48:44;4.50;;;3.60;;
68744;SDS011;66104;45.456;11.064;2023-02-28T02:51:23;6.40;;;3.90;;
68744;SDS011;66104;45.456;11.064;2023-02-28T02:54:08;5.40;;;3.80;;
68744;SDS011;66104;45.456;11.064;2023-02-28T02:56:49;6.90;;;4.10;;
68744;SDS011;66104;45.456;11.064;2023-02-28T02:59:29;4.90;;;3.40;;
68744;SDS011;66104;45.456;11.064;2023-02-28T03:02:08;7.00;;;4.40;;
68744;SDS011;66104;45.456;11.064;2023-02-28T03:04:51;6.70;;;4.40;;
68744;SDS011;66104;45.456;11.064;2023-02-28T03:07:33;5.80;;;4.60;;
68744;SDS011;66104;45.456;11.064;2023-02-28T03:10:29;5.70;;;3.50;;
68744;SDS011;66104;45.456;11.064;2023-02-28T03:13:41;6.90;;;4.30;;
68744;SDS011;66104;45.456;11.064;2023-02-28T03:16:38;6.50;;;3.90;;
68744;SDS011;66104;45.456;11.064;2023-02-28T03:22:53;8.40;;;5.00;;
68744;SDS011;66104;45.456;11.064;2023-02-28T03:25:43;7.00;;;3.70;;
68744;SDS011;66104;45.456;11.064;2023-02-28T03:28:34;5.90;;;3.90;;
68744;SDS011;66104;45.456;11.064;2023-02-28T03:31:19;5.90;;;4.00;;
68744;SDS011;66104;45.456;11.064;2023-02-28T03:34:06;6.90;;;4.20;;
68744;SDS011;66104;45.456;11.064;2023-02-28T03:36:50;6.00;;;3.80;;
68744;SDS011;66104;45.456;11.064;2023-02-28T03:39:37;5.00;;;3.30;;
68744;SDS011;66104;45.456;11.064;2023-02-28T03:42:20;6.20;;;4.60;;
68744;SDS011;66104;45.456;11.064;2023-02-28T03:45:04;5.80;;;4.00;;
68744;SDS011;66104;45.456;11.064;2023-02-28T03:47:49;6.80;;;4.80;;
68744;SDS011;66104;45.456;11.064;2023-02-28T03:50:35;7.10;;;4.70;;
68744;SDS011;66104;45.456;11.064;2023-02-28T03:53:16;6.80;;;4.50;;
68744;SDS011;66104;45.456;11.064;2023-02-28T03:55:59;7.00;;;4.20;;
68744;SDS011;66104;45.456;11.064;2023-02-28T03:58:43;7.70;;;4.60;;
68744;SDS011;66104;45.456;11.064;2023-02-28T04:01:30;7.10;;;4.90;;
68744;SDS011;66104;45.456;11.064;2023-02-28T04:04:10;7.70;;;4.60;;
68744;SDS011;66104;45.456;11.064;2023-02-28T04:06:47;8.60;;;4.60;;
68744;SDS011;66104;45.456;11.064;2023-02-28T04:09:25;9.50;;;4.60;;
68744;SDS011;66104;45.456;11.064;2023-02-28T04:12:02;7.10;;;4.50;;
68744;SDS011;66104;45.456;11.064;2023-02-28T04:14:40;5.90;;;3.70;;
68744;SDS011;66104;45.456;11.064;2023-02-28T04:17:17;6.80;;;4.30;;
68744;SDS011;66104;45.456;11.064;2023-02-28T04:19:54;6.10;;;4.00;;
68744;SDS011;66104;45.456;11.064;2023-02-28T04:22:31;6.50;;;4.00;;
68744;SDS011;66104;45.456;11.064;2023-02-28T04:25:12;6.50;;;4.40;;
68744;SDS011;66104;45.456;11.064;2023-02-28T04:27:49;6.40;;;4.10;;
68744;SDS011;66104;45.456;11.064;2023-02-28T04:30:25;6.40;;;4.60;;
68744;SDS011;66104;45.456;11.064;2023-02-28T04:33:04;6.20;;;4.30;;
68744;SDS011;66104;45.456;11.064;2023-02-28T04:35:41;6.30;;;4.50;;
68744;SDS011;66104;45.456;11.064;2023-02-28T04:38:17;6.40;;;4.70;;
68744;SDS011;66104;45.456;11.064;2023-02-28T04:40:56;6.20;;;4.40;;
68744;SDS011;66104;45.456;11.064;2023-02-28T04:43:33;7.90;;;4.80;;
68744;SDS011;66104;45.456;11.064;2023-02-28T04:46:10;8.20;;;4.80;;
68744;SDS011;66104;45.456;11.064;2023-02-28T04:48:47;9.40;;;5.20;;
68744;SDS011;66104;45.456;11.064;2023-02-28T04:51:25;7.30;;;4.50;;
68744;SDS011;66104;45.456;11.064;2023-02-28T04:54:01;8.10;;;5.00;;
68744;SDS011;66104;45.456;11.064;2023-02-28T04:56:38;7.40;;;4.30;;
68744;SDS011;66104;45.456;11.064;2023-02-28T04:59:15;6.40;;;4.40;;
68744;SDS011;66104;45.456;11.064;2023-02-28T05:01:51;8.00;;;5.50;;
68744;SDS011;66104;45.456;11.064;2023-02-28T05:04:29;5.90;;;4.10;;
68744;SDS011;66104;45.456;11.064;2023-02-28T05:07:05;6.20;;;3.60;;
68744;SDS011;66104;45.456;11.064;2023-02-28T05:09:46;7.90;;;4.70;;
68744;SDS011;66104;45.456;11.064;2023-02-28T05:12:23;8.90;;;5.40;;
68744;SDS011;66104;45.456;11.064;2023-02-28T05:14:59;6.50;;;4.10;;
68744;SDS011;66104;45.456;11.064;2023-02-28T05:17:36;6.70;;;4.40;;
68744;SDS011;66104;45.456;11.064;2023-02-28T05:20:16;7.30;;;4.50;;
68744;SDS011;66104;45.456;11.064;2023-02-28T05:22:53;6.50;;;4.00;;
68744;SDS011;66104;45.456;11.064;2023-02-28T05:25:57;6.10;;;3.90;;
68744;SDS011;66104;45.456;11.064;2023-02-28T05:28:34;6.60;;;4.40;;
68744;SDS011;66104;45.456;11.064;2023-02-28T05:31:11;6.80;;;4.30;;
68744;SDS011;66104;45.456;11.064;2023-02-28T05:33:48;5.60;;;4.10;;
68744;SDS011;66104;45.456;11.064;2023-02-28T05:36:24;7.00;;;4.60;;
68744;SDS011;66104;45.456;11.064;2023-02-28T05:39:01;6.50;;;4.10;;
68744;SDS011;66104;45.456;11.064;2023-02-28T05:41:39;6.10;;;3.90;;
68744;SDS011;66104;45.456;11.064;2023-02-28T05:44:15;6.70;;;4.10;;
68744;SDS011;66104;45.456;11.064;2023-02-28T05:46:51;7.60;;;4.80;;
68744;SDS011;66104;45.456;11.064;2023-02-28T05:49:29;8.70;;;4.70;;
68744;SDS011;66104;45.456;11.064;2023-02-28T05:52:06;5.80;;;3.80;;
68744;SDS011;66104;45.456;11.064;2023-02-28T05:54:43;7.40;;;4.60;;
68744;SDS011;66104;45.456;11.064;2023-02-28T05:57:21;6.20;;;4.20;;
68744;SDS011;66104;45.456;11.064;2023-02-28T05:59:56;7.70;;;4.80;;
68744;SDS011;66104;45.456;11.064;2023-02-28T06:02:42;6.00;;;3.40;;
68744;SDS011;66104;45.456;11.064;2023-02-28T06:05:20;7.30;;;4.70;;
68744;SDS011;66104;45.456;11.064;2023-02-28T06:07:58;8.30;;;4.70;;
68744;SDS011;66104;45.456;11.064;2023-02-28T06:10:36;7.60;;;4.80;;
68744;SDS011;66104;45.456;11.064;2023-02-28T06:13:13;7.00;;;4.30;;
68744;SDS011;66104;45.456;11.064;2023-02-28T06:15:49;6.80;;;4.40;;
68744;SDS011;66104;45.456;11.064;2023-02-28T06:18:27;6.40;;;4.10;;
68744;SDS011;66104;45.456;11.064;2023-02-28T06:21:05;6.20;;;4.00;;
68744;SDS011;66104;45.456;11.064;2023-02-28T06:23:43;8.80;;;4.80;;
68744;SDS011;66104;45.456;11.064;2023-02-28T06:26:19;7.90;;;5.00;;
68744;SDS011;66104;45.456;11.064;2023-02-28T06:28:56;5.80;;;4.00;;
68744;SDS011;66104;45.456;11.064;2023-02-28T06:31:34;6.30;;;4.50;;
68744;SDS011;66104;45.456;11.064;2023-02-28T06:34:10;7.80;;;5.10;;
68744;SDS011;66104;45.456;11.064;2023-02-28T06:36:49;6.90;;;4.70;;
68744;SDS011;66104;45.456;11.064;2023-02-28T06:39:25;7.40;;;4.20;;
68744;SDS011;66104;45.456;11.064;2023-02-28T06:42:03;6.70;;;4.10;;
68744;SDS011;66104;45.456;11.064;2023-02-28T06:44:40;6.80;;;4.40;;
68744;SDS011;66104;45.456;11.064;2023-02-28T06:47:18;7.50;;;4.60;;
68744;SDS011;66104;45.456;11.064;2023-02-28T06:49:55;7.40;;;4.90;;
68744;SDS011;66104;45.456;11.064;2023-02-28T06:52:33;5.80;;;4.10;;
68744;SDS011;66104;45.456;11.064;2023-02-28T06:55:13;6.40;;;4.40;;
68744;SDS011;66104;45.456;11.064;2023-02-28T06:57:50;6.00;;;4.00;;
68744;SDS011;66104;45.456;11.064;2023-02-28T07:00:28;8.00;;;4.80;;
68744;SDS011;66104;45.456;11.064;2023-02-28T07:03:06;6.70;;;4.40;;
68744;SDS011;66104;45.456;11.064;2023-02-28T07:05:44;7.70;;;4.30;;
68744;SDS011;66104;45.456;11.064;2023-02-28T07:08:20;6.80;;;4.60;;
68744;SDS011;66104;45.456;11.064;2023-02-28T07:10:58;6.30;;;4.50;;
68744;SDS011;66104;45.456;11.064;2023-02-28T07:13:35;7.00;;;4.40;;
68744;SDS011;66104;45.456;11.064;2023-02-28T07:16:13;7.90;;;5.00;;
68744;SDS011;66104;45.456;11.064;2023-02-28T07:18:51;8.10;;;4.80;;
68744;SDS011;66104;45.456;11.064;2023-02-28T07:21:29;7.80;;;5.40;;
68744;SDS011;66104;45.456;11.064;2023-02-28T07:24:08;8.10;;;4.90;;
68744;SDS011;66104;45.456;11.064;2023-02-28T07:26:47;8.30;;;5.40;;
68744;SDS011;66104;45.456;11.064;2023-02-28T07:29:24;6.40;;;4.00;;
68744;SDS011;66104;45.456;11.064;2023-02-28T07:32:01;8.20;;;5.20;;
68744;SDS011;66104;45.456;11.064;2023-02-28T07:34:39;6.30;;;4.10;;
68744;SDS011;66104;45.456;11.064;2023-02-28T07:37:15;8.50;;;4.90;;
68744;SDS011;66104;45.456;11.064;2023-02-28T07:39:52;7.70;;;4.90;;
68744;SDS011;66104;45.456;11.064;2023-02-28T07:42:30;9.50;;;5.20;;
68744;SDS011;66104;45.456;11.064;2023-02-28T07:45:11;7.00;;;4.60;;
68744;SDS011;66104;45.456;11.064;2023-02-28T07:47:48;8.40;;;5.30;;
68744;SDS011;66104;45.456;11.064;2023-02-28T07:50:25;6.70;;;4.30;;
68744;SDS011;66104;45.456;11.064;2023-02-28T07:53:02;7.60;;;4.60;;
68744;SDS011;66104;45.456;11.064;2023-02-28T07:55:39;8.20;;;4.80;;
68744;SDS011;66104;45.456;11.064;2023-02-28T07:58:16;10.10;;;5.70;;
68744;SDS011;66104;45.456;11.064;2023-02-28T08:00:54;8.60;;;5.10;;
68744;SDS011;66104;45.456;11.064;2023-02-28T08:03:30;7.90;;;5.30;;
68744;SDS011;66104;45.456;11.064;2023-02-28T08:06:11;8.60;;;5.30;;
68744;SDS011;66104;45.456;11.064;2023-02-28T08:08:52;7.90;;;5.20;;
68744;SDS011;66104;45.456;11.064;2023-02-28T08:11:29;10.00;;;5.90;;
68744;SDS011;66104;45.456;11.064;2023-02-28T08:14:07;8.70;;;5.20;;
68744;SDS011;66104;45.456;11.064;2023-02-28T08:16:43;8.00;;;5.10;;
68744;SDS011;66104;45.456;11.064;2023-02-28T08:19:19;8.90;;;5.50;;
68744;SDS011;66104;45.456;11.064;2023-02-28T08:21:56;9.50;;;5.70;;
68744;SDS011;66104;45.456;11.064;2023-02-28T08:24:34;8.20;;;4.60;;
68744;SDS011;66104;45.456;11.064;2023-02-28T08:27:10;7.60;;;4.00;;
68744;SDS011;66104;45.456;11.064;2023-02-28T08:29:47;10.70;;;5.70;;
68744;SDS011;66104;45.456;11.064;2023-02-28T08:32:24;9.10;;;5.30;;
68744;SDS011;66104;45.456;11.064;2023-02-28T08:35:00;8.50;;;5.40;;
68744;SDS011;66104;45.456;11.064;2023-02-28T08:37:37;7.60;;;5.00;;
68744;SDS011;66104;45.456;11.064;2023-02-28T08:40:18;8.30;;;5.50;;
68744;SDS011;66104;45.456;11.064;2023-02-28T08:42:56;7.70;;;4.80;;
68744;SDS011;66104;45.456;11.064;2023-02-28T08:45:33;9.90;;;5.60;;
68744;SDS011;66104;45.456;11.064;2023-02-28T08:48:10;9.70;;;5.40;;
68744;SDS011;66104;45.456;11.064;2023-02-28T08:50:59;7.80;;;5.30;;
68744;SDS011;66104;45.456;11.064;2023-02-28T08:53:39;7.30;;;4.60;;
68744;SDS011;66104;45.456;11.064;2023-02-28T08:56:15;9.40;;;5.90;;
68744;SDS011;66104;45.456;11.064;2023-02-28T08:58:53;7.50;;;4.60;;
68744;SDS011;66104;45.456;11.064;2023-02-28T09:01:30;7.70;;;4.80;;
68744;SDS011;66104;45.456;11.064;2023-02-28T09:04:08;6.90;;;3.80;;
68744;SDS011;66104;45.456;11.064;2023-02-28T09:06:50;8.40;;;4.70;;
68744;SDS011;66104;45.456;11.064;2023-02-28T09:09:28;9.40;;;5.30;;
68744;SDS011;66104;45.456;11.064;2023-02-28T09:12:05;8.70;;;5.40;;
68744;SDS011;66104;45.456;11.064;2023-02-28T09:14:42;10.60;;;5.00;;
68744;SDS011;66104;45.456;11.064;2023-02-28T09:17:20;7.80;;;4.80;;
68744;SDS011;66104;45.456;11.064;2023-02-28T09:20:01;7.70;;;5.00;;
68744;SDS011;66104;45.456;11.064;2023-02-28T09:22:39;7.10;;;4.40;;
68744;SDS011;66104;45.456;11.064;2023-02-28T09:25:18;7.40;;;5.00;;
68744;SDS011;66104;45.456;11.064;2023-02-28T09:27:55;9.20;;;5.60;;
68744;SDS011;66104;45.456;11.064;2023-02-28T09:30:32;6.90;;;4.30;;
68744;SDS011;66104;45.456;11.064;2023-02-28T09:33:08;5.30;;;3.60;;
68744;SDS011;66104;45.456;11.064;2023-02-28T09:35:44;7.30;;;4.50;;
68744;SDS011;66104;45.456;11.064;2023-02-28T09:38:21;7.50;;;4.50;;
68744;SDS011;66104;45.456;11.064;2023-02-28T09:41:00;6.20;;;4.60;;
68744;SDS011;66104;45.456;11.064;2023-02-28T09:43:40;7.60;;;4.80;;
68744;SDS011;66104;45.456;11.064;2023-02-28T09:46:30;8.40;;;5.10;;
68744;SDS011;66104;45.456;11.064;2023-02-28T09:49:14;5.60;;;3.90;;
68744;SDS011;66104;45.456;11.064;2023-02-28T09:51:58;6.30;;;4.40;;
68744;SDS011;66104;45.456;11.064;2023-02-28T09:54:40;7.10;;;4.80;;
68744;SDS011;66104;45.456;11.064;2023-02-28T09:57:21;7.30;;;5.10;;
68744;SDS011;66104;45.456;11.064;2023-02-28T10:00:17;8.20;;;5.10;;
68744;SDS011;66104;45.456;11.064;2023-02-28T10:06:04;7.50;;;5.10;;
68744;SDS011;66104;45.456;11.064;2023-02-28T10:08:56;8.20;;;4.80;;
68744;SDS011;66104;45.456;11.064;2023-02-28T10:11:39;7.30;;;4.50;;
68744;SDS011;66104;45.456;11.064;2023-02-28T10:14:19;5.80;;;4.20;;
68744;SDS011;66104;45.456;11.064;2023-02-28T10:17:01;10.60;;;6.40;;
68744;SDS011;66104;45.456;11.064;2023-02-28T10:19:46;8.90;;;4.90;;
68744;SDS011;66104;45.456;11.064;2023-02-28T10:22:36;8.00;;;5.20;;
68744;SDS011;66104;45.456;11.064;2023-02-28T10:25:21;7.40;;;4.20;;
68744;SDS011;66104;45.456;11.064;2023-02-28T10:28:05;8.70;;;5.10;;
68744;SDS011;66104;45.456;11.064;2023-02-28T10:30:48;9.50;;;5.60;;
68744;SDS011;66104;45.456;11.064;2023-02-28T10:33:29;8.70;;;6.10;;
68744;SDS011;66104;45.456;11.064;2023-02-28T10:36:10;9.00;;;6.20;;
68744;SDS011;66104;45.456;11.064;2023-02-28T10:38:51;8.70;;;5.70;;
68744;SDS011;66104;45.456;11.064;2023-02-28T10:41:33;7.00;;;4.70;;
68744;SDS011;66104;45.456;11.064;2023-02-28T10:44:24;10.00;;;6.10;;
68744;SDS011;66104;45.456;11.064;2023-02-28T10:47:02;9.30;;;5.70;;
68744;SDS011;66104;45.456;11.064;2023-02-28T10:49:39;9.10;;;5.70;;
68744;SDS011;66104;45.456;11.064;2023-02-28T10:52:39;11.30;;;5.70;;
68744;SDS011;66104;45.456;11.064;2023-02-28T10:55:22;7.10;;;4.80;;
68744;SDS011;66104;45.456;11.064;2023-02-28T10:57:59;8.70;;;5.90;;
68744;SDS011;66104;45.456;11.064;2023-02-28T11:00:37;11.20;;;6.00;;
68744;SDS011;66104;45.456;11.064;2023-02-28T11:03:28;9.80;;;5.40;;
68744;SDS011;66104;45.456;11.064;2023-02-28T11:06:13;10.40;;;6.10;;
68744;SDS011;66104;45.456;11.064;2023-02-28T11:08:56;9.70;;;5.60;;
68744;SDS011;66104;45.456;11.064;2023-02-28T11:11:44;8.50;;;5.80;;
68744;SDS011;66104;45.456;11.064;2023-02-28T11:14:24;9.00;;;6.20;;
68744;SDS011;66104;45.456;11.064;2023-02-28T11:17:19;7.40;;;5.10;;
68744;SDS011;66104;45.456;11.064;2023-02-28T11:20:00;8.40;;;5.40;;
68744;SDS011;66104;45.456;11.064;2023-02-28T11:22:43;10.20;;;6.10;;
68744;SDS011;66104;45.456;11.064;2023-02-28T11:25:25;8.70;;;6.00;;
68744;SDS011;66104;45.456;11.064;2023-02-28T11:28:05;10.90;;;6.10;;
68744;SDS011;66104;45.456;11.064;2023-02-28T11:34:01;7.10;;;5.20;;
68744;SDS011;66104;45.456;11.064;2023-02-28T11:36:58;7.90;;;5.30;;
68744;SDS011;66104;45.456;11.064;2023-02-28T11:39:36;10.20;;;5.40;;
68744;SDS011;66104;45.456;11.064;2023-02-28T11:42:31;8.60;;;6.20;;
68744;SDS011;66104;45.456;11.064;2023-02-28T11:45:37;9.20;;;5.20;;
68744;SDS011;66104;45.456;11.064;2023-02-28T11:48:30;8.60;;;5.60;;
68744;SDS011;66104;45.456;11.064;2023-02-28T11:51:18;8.70;;;5.40;;
68744;SDS011;66104;45.456;11.064;2023-02-28T11:57:21;10.40;;;6.80;;
68744;SDS011;66104;45.456;11.064;2023-02-28T12:00:14;8.70;;;5.40;;
68744;SDS011;66104;45.456;11.064;2023-02-28T12:03:15;10.00;;;6.90;;
68744;SDS011;66104;45.456;11.064;2023-02-28T12:06:09;10.30;;;5.70;;
68744;SDS011;66104;45.456;11.064;2023-02-28T12:09:04;12.40;;;5.70;;
68744;SDS011;66104;45.456;11.064;2023-02-28T12:11:56;8.60;;;6.00;;
68744;SDS011;66104;45.456;11.064;2023-02-28T12:18:20;11.50;;;6.80;;
68744;SDS011;66104;45.456;11.064;2023-02-28T12:21:27;9.10;;;5.80;;
68744;SDS011;66104;45.456;11.064;2023-02-28T12:24:24;10.30;;;6.90;;
68744;SDS011;66104;45.456;11.064;2023-02-28T12:27:11;8.50;;;6.10;;
68744;SDS011;66104;45.456;11.064;2023-02-28T12:29:53;12.00;;;6.80;;
68744;SDS011;66104;45.456;11.064;2023-02-28T12:32:37;9.50;;;5.60;;
68744;SDS011;66104;45.456;11.064;2023-02-28T12:35:21;11.30;;;6.90;;
68744;SDS011;66104;45.456;11.064;2023-02-28T12:38:05;10.70;;;7.30;;
68744;SDS011;66104;45.456;11.064;2023-02-28T12:40:52;11.80;;;7.10;;
68744;SDS011;66104;45.456;11.064;2023-02-28T12:43:36;10.70;;;6.80;;
68744;SDS011;66104;45.456;11.064;2023-02-28T12:46:20;9.10;;;6.70;;
68744;SDS011;66104;45.456;11.064;2023-02-28T12:49:08;11.80;;;6.30;;
68744;SDS011;66104;45.456;11.064;2023-02-28T12:51:47;12.70;;;7.60;;
68744;SDS011;66104;45.456;11.064;2023-02-28T12:54:28;12.30;;;8.40;;
68744;SDS011;66104;45.456;11.064;2023-02-28T12:57:15;12.60;;;7.50;;
68744;SDS011;66104;45.456;11.064;2023-02-28T13:00:03;15.40;;;8.10;;
68744;SDS011;66104;45.456;11.064;2023-02-28T13:06:30;13.20;;;7.70;;
68744;SDS011;66104;45.456;11.064;2023-02-28T13:09:21;10.60;;;7.30;;
68744;SDS011;66104;45.456;11.064;2023-02-28T13:12:00;10.80;;;6.90;;
68744;SDS011;66104;45.456;11.064;2023-02-28T13:14:45;11.50;;;8.00;;
68744;SDS011;66104;45.456;11.064;2023-02-28T13:17:23;10.40;;;6.40;;
68744;SDS011;66104;45.456;11.064;2023-02-28T13:20:01;12.30;;;7.70;;
68744;SDS011;66104;45.456;11.064;2023-02-28T13:22:49;10.80;;;8.20;;
68744;SDS011;66104;45.456;11.064;2023-02-28T13:25:52;13.00;;;8.40;;
68744;SDS011;66104;45.456;11.064;2023-02-28T13:35:37;11.80;;;7.50;;
68744;SDS011;66104;45.456;11.064;2023-02-28T13:38:41;11.10;;;7.00;;
68744;SDS011;66104;45.456;11.064;2023-02-28T13:41:48;12.20;;;6.90;;
68744;SDS011;66104;45.456;11.064;2023-02-28T13:44:25;10.40;;;6.70;;
68744;SDS011;66104;45.456;11.064;2023-02-28T13:47:23;12.30;;;7.30;;
68744;SDS011;66104;45.456;11.064;2023-02-28T13:50:21;9.50;;;6.30;;
68744;SDS011;66104;45.456;11.064;2023-02-28T13:53:36;10.20;;;6.40;;
68744;SDS011;66104;45.456;11.064;2023-02-28T13:56:31;7.60;;;5.20;;
68744;SDS011;66104;45.456;11.064;2023-02-28T13:59:26;10.50;;;6.20;;
68744;SDS011;66104;45.456;11.064;2023-02-28T14:02:36;11.20;;;6.80;;
68744;SDS011;66104;45.456;11.064;2023-02-28T14:05:26;10.60;;;7.10;;
68744;SDS011;66104;45.456;11.064;2023-02-28T14:08:10;9.60;;;6.40;;
68744;SDS011;66104;45.456;11.064;2023-02-28T14:10:51;10.50;;;6.30;;
68744;SDS011;66104;45.456;11.064;2023-02-28T14:13:45;9.70;;;6.50;;
68744;SDS011;66104;45.456;11.064;2023-02-28T14:16:26;12.10;;;7.40;;
68744;SDS011;66104;45.456;11.064;2023-02-28T14:19:13;10.40;;;6.40;;
68744;SDS011;66104;45.456;11.064;2023-02-28T14:22:04;9.30;;;6.60;;
68744;SDS011;66104;45.456;11.064;2023-02-28T14:25:06;12.40;;;7.60;;
68744;SDS011;66104;45.456;11.064;2023-02-28T14:27:57;9.40;;;5.90;;
68744;SDS011;66104;45.456;11.064;2023-02-28T14:30:56;10.00;;;6.60;;
68744;SDS011;66104;45.456;11.064;2023-02-28T14:37:01;10.30;;;6.70;;
68744;SDS011;66104;45.456;11.064;2023-02-28T14:39:43;10.20;;;6.20;;
68744;SDS011;66104;45.456;11.064;2023-02-28T14:42:35;9.30;;;6.30;;
68744;SDS011;66104;45.456;11.064;2023-02-28T14:45:22;11.70;;;5.80;;
68744;SDS011;66104;45.456;11.064;2023-02-28T14:48:01;9.80;;;6.30;;
68744;SDS011;66104;45.456;11.064;2023-02-28T14:50:51;9.90;;;6.90;;
68744;SDS011;66104;45.456;11.064;2023-02-28T14:53:36;11.60;;;7.10;;
68744;SDS011;66104;45.456;11.064;2023-02-28T14:56:24;18.60;;;7.70;;
68744;SDS011;66104;45.456;11.064;2023-02-28T14:59:02;10.70;;;7.00;;
68744;SDS011;66104;45.456;11.064;2023-02-28T15:01:38;11.60;;;6.10;;
68744;SDS011;66104;45.456;11.064;2023-02-28T15:04:21;12.70;;;7.70;;
68744;SDS011;66104;45.456;11.064;2023-02-28T15:07:13;12.60;;;7.50;;
68744;SDS011;66104;45.456;11.064;2023-02-28T15:09:50;11.80;;;7.60;;
68744;SDS011;66104;45.456;11.064;2023-02-28T15:12:57;12.60;;;7.10;;
68744;SDS011;66104;45.456;11.064;2023-02-28T15:15:44;11.90;;;7.40;;
68744;SDS011;66104;45.456;11.064;2023-02-28T15:18:41;10.70;;;6.80;;
68744;SDS011;66104;45.456;11.064;2023-02-28T15:21:23;10.80;;;6.30;;
68744;SDS011;66104;45.456;11.064;2023-02-28T15:24:04;11.70;;;7.70;;
68744;SDS011;66104;45.456;11.064;2023-02-28T15:26:47;12.60;;;7.90;;
68744;SDS011;66104;45.456;11.064;2023-02-28T15:29:32;12.90;;;6.30;;
68744;SDS011;66104;45.456;11.064;2023-02-28T15:32:31;8.60;;;5.00;;
68744;SDS011;66104;45.456;11.064;2023-02-28T15:35:26;11.30;;;7.20;;
68744;SDS011;66104;45.456;11.064;2023-02-28T15:38:16;9.30;;;6.00;;
68744;SDS011;66104;45.456;11.064;2023-02-28T15:40:58;10.60;;;7.00;;
68744;SDS011;66104;45.456;11.064;2023-02-28T15:43:39;12.50;;;7.90;;
68744;SDS011;66104;45.456;11.064;2023-02-28T15:46:15;12.40;;;7.30;;
68744;SDS011;66104;45.456;11.064;2023-02-28T15:48:55;12.20;;;7.70;;
68744;SDS011;66104;45.456;11.064;2023-02-28T15:51:36;10.40;;;6.60;;
68744;SDS011;66104;45.456;11.064;2023-02-28T15:54:17;11.40;;;6.60;;
68744;SDS011;66104;45.456;11.064;2023-02-28T15:57:07;12.70;;;7.00;;
68744;SDS011;66104;45.456;11.064;2023-02-28T15:59:51;11.60;;;7.10;;
68744;SDS011;66104;45.456;11.064;2023-02-28T16:02:35;11.50;;;6.30;;
68744;SDS011;66104;45.456;11.064;2023-02-28T16:05:30;12.10;;;7.50;;
68744;SDS011;66104;45.456;11.064;2023-02-28T16:08:15;12.60;;;7.00;;
68744;SDS011;66104;45.456;11.064;2023-02-28T16:10:54;12.10;;;7.60;;
68744;SDS011;66104;45.456;11.064;2023-02-28T16:13:31;13.80;;;7.30;;
68744;SDS011;66104;45.456;11.064;2023-02-28T16:16:09;12.20;;;6.80;;
68744;SDS011;66104;45.456;11.064;2023-02-28T16:18:51;15.80;;;8.30;;
68744;SDS011;66104;45.456;11.064;2023-02-28T16:21:28;12.10;;;7.60;;
68744;SDS011;66104;45.456;11.064;2023-02-28T16:24:07;11.60;;;6.80;;
68744;SDS011;66104;45.456;11.064;2023-02-28T16:26:44;12.30;;;7.10;;
68744;SDS011;66104;45.456;11.064;2023-02-28T16:29:26;15.60;;;8.20;;
68744;SDS011;66104;45.456;11.064;2023-02-28T16:32:06;15.60;;;8.20;;
68744;SDS011;66104;45.456;11.064;2023-02-28T16:34:44;12.60;;;7.90;;
68744;SDS011;66104;45.456;11.064;2023-02-28T16:37:21;11.80;;;6.90;;